• Join FlightAware (Why Join?)
  • Login
  • US Flag 
03:49PM EDT


 

Airport Tracker/Info


-or-


 

Live Flight TrackerFlight Track Log ✈ N700QA ✈ 07-Jun-2013 ✈ KLAS - KONT

Flight Track Log - Related Links

Times and Time Zones

All times are in EDT time to prevent confusion due to time zone crossing. See the N700QA flight status page for this flight to view local times or setup timezone preferences in your user account.

Time Position Orientation Groundspeed Altitude Reporting Facility
EDT Latitude Longitude Course Direction KTS MPH feet Rate Location/Type
08:47PM 36.0325 -115.2770 180° South  Level Estimated
08:48PM 36.0458 -115.1764 180° South 178 205 3,700  Level Los Angeles Center
08:49PM 35.9967 -115.2103 209° Southwest 213 245 5,600 1,980 Climbing Los Angeles Center
08:50PM 35.9339 -115.2325 196° South 221 254 7,800 2,100 Climbing Los Angeles Center
08:51PM 35.8478 -115.2519 190° South 245 282 10,300 2,280 Climbing Los Angeles Center
08:52PM 35.7708 -115.2700 191° South 262 302 12,600 2,160 Climbing Los Angeles Center
08:53PM 35.6886 -115.2922 192° South 287 330 14,800 2,100 Climbing Los Angeles Center
08:54PM 35.6153 -115.3803 224° Southwest 301 346 17,500 2,100 Climbing Los Angeles Center
08:55PM 35.5550 -115.4575 226° Southwest 309 356 19,700 1,740 Climbing Los Angeles Center
08:56PM 35.4931 -115.5411 228° Southwest 321 369 21,200 1,380 Climbing Los Angeles Center
08:57PM 35.4247 -115.6331 228° Southwest 350 403 22,600 1,260 Climbing Los Angeles Center
08:58PM 35.3564 -115.7239 227° Southwest 361 415 23,800 720 Climbing Los Angeles Center
09:00PM 35.2672 -115.8422 227° Southwest 391 450 24,100 120 Climbing Los Angeles Center
09:01PM 35.1892 -115.9433 227° Southwest 405 466 24,100  Level Los Angeles Center
09:02PM 35.1100 -116.0464 227° Southwest 411 473 24,100  Level Los Angeles Center
09:03PM 35.0314 -116.1483 227° Southwest 413 475 24,100  Level Los Angeles Center
09:04PM 34.9561 -116.2508 228° Southwest 410 472 24,100  Level Los Angeles Center
09:05PM 34.8767 -116.3528 226° Southwest 412 474 24,100  Level Los Angeles Center
09:06PM 34.7983 -116.4550 227° Southwest 412 474 24,100  Level Los Angeles Center
09:07PM 34.7017 -116.5744 225° Southwest 413 475 24,100 -120 Level Los Angeles Center
09:08PM 34.6211 -116.6725 225° Southwest 409 471 23,900 -1,020 Descending Los Angeles Center
09:09PM 34.5469 -116.7603 224° Southwest 375 432 22,000 -2,040 Descending Los Angeles Center
09:10PM 34.4786 -116.8458 226° Southwest 356 410 19,800 -2,340 Descending Los Angeles Center
09:11PM 34.4167 -116.9308 229° Southwest 339 390 17,200 -2,460 Descending Los Angeles Center
09:12PM 34.3503 -117.0069 223° Southwest 328 377 14,800 -2,340 Descending Los Angeles Center
09:13PM 34.2867 -117.0803 224° Southwest 318 366 12,500 -2,160 Descending Los Angeles Center
09:14PM 34.2175 -117.1669 226° Southwest 299 344 10,400 -1,800 Descending Los Angeles Center
09:15PM 34.1544 -117.2122 211° Southwest 278 320 8,900 -1,620 Descending Los Angeles Center
09:16PM 34.1000 -117.2500 210° Southwest 258 297 7,600 -2,040 Descending Southern California TRACON
09:17PM 34.0667 -117.2833 220° Southwest 232 267 5,700 -1,740 Descending Southern California TRACON
09:18PM 34.0500 -117.3500 253° West 197 227 4,400 -1,080 Descending Southern California TRACON
09:19PM 34.0500 -117.4167 270° West 194 223 3,600 -960 Descending Southern California TRACON
09:20PM 34.0500 -117.4833 270° West 189 217 2,400 -960 Descending Southern California TRACON
09:21PM 34.0500 -117.5333 270° West 147 169 1,700 -780 Descending Southern California TRACON
09:23PM 34.0500 -117.6000 270° West  Level FlightAware Approximate
09:30PM 34.0560 -117.6012 270° West  Level Estimated